sensor_id;sensor_type;location;lat;lon;timestamp;pressure;altitude;pressure_sealevel;temperature;humidity
76728;BME280;65652;53.132;18.026;2023-02-01T00:02:20;99868.06;;;3.29;79.31
76728;BME280;65652;53.132;18.026;2023-02-01T00:04:46;99867.90;;;3.32;79.14
76728;BME280;65652;53.132;18.026;2023-02-01T00:07:12;99878.39;;;3.34;79.57
76728;BME280;65652;53.132;18.026;2023-02-01T00:09:38;99878.42;;;3.36;79.22
76728;BME280;65652;53.132;18.026;2023-02-01T00:12:04;99876.16;;;3.38;79.43
76728;BME280;65652;53.132;18.026;2023-02-01T00:14:31;99880.91;;;3.40;79.40
76728;BME280;65652;53.132;18.026;2023-02-01T00:17:05;99878.15;;;3.42;79.33
76728;BME280;65652;53.132;18.026;2023-02-01T00:19:33;99882.98;;;3.43;79.09
76728;BME280;65652;53.132;18.026;2023-02-01T00:21:59;99879.91;;;3.45;78.91
76728;BME280;65652;53.132;18.026;2023-02-01T00:24:26;99886.30;;;3.45;79.21
76728;BME280;65652;53.132;18.026;2023-02-01T00:26:52;99888.30;;;3.47;79.09
76728;BME280;65652;53.132;18.026;2023-02-01T00:29:19;99892.50;;;3.46;79.30
76728;BME280;65652;53.132;18.026;2023-02-01T00:31:46;99894.80;;;3.46;79.46
76728;BME280;65652;53.132;18.026;2023-02-01T00:34:14;99896.48;;;3.45;79.05
76728;BME280;65652;53.132;18.026;2023-02-01T00:36:43;99895.58;;;3.45;79.26
76728;BME280;65652;53.132;18.026;2023-02-01T00:39:10;99902.52;;;3.46;79.27
76728;BME280;65652;53.132;18.026;2023-02-01T00:41:36;99912.45;;;3.45;79.14
76728;BME280;65652;53.132;18.026;2023-02-01T00:44:03;99907.21;;;3.46;79.03
76728;BME280;65652;53.132;18.026;2023-02-01T00:46:29;99912.96;;;3.46;79.34
76728;BME280;65652;53.132;18.026;2023-02-01T00:48:56;99914.34;;;3.46;79.24
76728;BME280;65652;53.132;18.026;2023-02-01T00:51:25;99908.60;;;3.46;79.46
76728;BME280;65652;53.132;18.026;2023-02-01T00:53:52;99905.80;;;3.46;79.54
76728;BME280;65652;53.132;18.026;2023-02-01T00:56:19;99912.29;;;3.45;79.85
76728;BME280;65652;53.132;18.026;2023-02-01T00:58:45;99906.75;;;3.42;79.80
76728;BME280;65652;53.132;18.026;2023-02-01T01:01:16;99909.52;;;3.38;79.92
76728;BME280;65652;53.132;18.026;2023-02-01T01:03:46;99908.44;;;3.34;80.19
76728;BME280;65652;53.132;18.026;2023-02-01T01:06:14;99906.07;;;3.27;80.80
76728;BME280;65652;53.132;18.026;2023-02-01T01:08:42;99914.61;;;3.22;81.18
76728;BME280;65652;53.132;18.026;2023-02-01T01:11:16;99920.10;;;3.16;81.32
76728;BME280;65652;53.132;18.026;2023-02-01T01:13:46;99913.98;;;3.12;81.35
76728;BME280;65652;53.132;18.026;2023-02-01T01:16:13;99915.40;;;3.09;81.70
76728;BME280;65652;53.132;18.026;2023-02-01T01:18:42;99914.91;;;3.06;82.00
76728;BME280;65652;53.132;18.026;2023-02-01T01:21:09;99916.98;;;3.04;81.96
76728;BME280;65652;53.132;18.026;2023-02-01T01:23:37;99916.13;;;3.03;82.23
76728;BME280;65652;53.132;18.026;2023-02-01T01:26:08;99907.90;;;3.04;82.12
76728;BME280;65652;53.132;18.026;2023-02-01T01:28:34;99912.96;;;3.06;82.25
76728;BME280;65652;53.132;18.026;2023-02-01T01:31:01;99917.63;;;3.07;82.34
76728;BME280;65652;53.132;18.026;2023-02-01T01:33:27;99920.10;;;3.09;82.25
76728;BME280;65652;53.132;18.026;2023-02-01T01:35:54;99915.46;;;3.10;82.29
76728;BME280;65652;53.132;18.026;2023-02-01T01:38:20;99912.89;;;3.12;82.53
76728;BME280;65652;53.132;18.026;2023-02-01T01:40:47;99910.13;;;3.15;82.45
76728;BME280;65652;53.132;18.026;2023-02-01T01:43:18;99909.98;;;3.17;82.21
76728;BME280;65652;53.132;18.026;2023-02-01T01:45:45;99907.73;;;3.19;82.49
76728;BME280;65652;53.132;18.026;2023-02-01T01:48:28;99907.80;;;3.20;82.15
76728;BME280;65652;53.132;18.026;2023-02-01T01:51:07;99914.96;;;3.23;82.21
76728;BME280;65652;53.132;18.026;2023-02-01T01:53:42;99897.59;;;3.24;82.16
76728;BME280;65652;53.132;18.026;2023-02-01T01:56:11;99901.84;;;3.25;82.12
76728;BME280;65652;53.132;18.026;2023-02-01T01:58:38;99905.07;;;3.27;82.05
76728;BME280;65652;53.132;18.026;2023-02-01T02:01:04;99901.16;;;3.28;81.65
76728;BME280;65652;53.132;18.026;2023-02-01T02:03:44;99896.50;;;3.29;81.64
76728;BME280;65652;53.132;18.026;2023-02-01T02:06:18;99901.23;;;3.32;81.62
76728;BME280;65652;53.132;18.026;2023-02-01T02:08:46;99897.46;;;3.33;81.12
76728;BME280;65652;53.132;18.026;2023-02-01T02:11:16;99900.17;;;3.34;81.02
76728;BME280;65652;53.132;18.026;2023-02-01T02:13:46;99896.38;;;3.36;80.92
76728;BME280;65652;53.132;18.026;2023-02-01T02:27:31;99891.93;;;3.47;79.57
76728;BME280;65652;53.132;18.026;2023-02-01T02:30:22;99889.18;;;3.49;79.40
76728;BME280;65652;53.132;18.026;2023-02-01T02:35:50;99901.33;;;3.50;78.82
76728;BME280;65652;53.132;18.026;2023-02-01T02:41:20;99910.26;;;3.52;78.71
76728;BME280;65652;53.132;18.026;2023-02-01T02:44:36;99906.88;;;3.53;78.46
76728;BME280;65652;53.132;18.026;2023-02-01T02:50:34;99909.51;;;3.57;77.72
76728;BME280;65652;53.132;18.026;2023-02-01T02:53:27;99916.61;;;3.61;77.54
76728;BME280;65652;53.132;18.026;2023-02-01T02:56:15;99916.25;;;3.63;77.25
76728;BME280;65652;53.132;18.026;2023-02-01T02:59:01;99914.08;;;3.67;77.14
76728;BME280;65652;53.132;18.026;2023-02-01T03:01:48;99911.89;;;3.70;76.95
76728;BME280;65652;53.132;18.026;2023-02-01T03:04:33;99904.07;;;3.72;76.70
76728;BME280;65652;53.132;18.026;2023-02-01T03:07:46;99910.70;;;3.72;76.69
76728;BME280;65652;53.132;18.026;2023-02-01T03:09:59;99913.30;;;3.75;76.03
76728;BME280;65652;53.132;18.026;2023-02-01T03:12:33;99912.09;;;3.77;76.06
76728;BME280;65652;53.132;18.026;2023-02-01T03:15:41;99909.91;;;3.78;76.11
76728;BME280;65652;53.132;18.026;2023-02-01T03:18:15;99900.94;;;3.79;75.26
76728;BME280;65652;53.132;18.026;2023-02-01T03:20:46;99911.41;;;3.82;75.11
76728;BME280;65652;53.132;18.026;2023-02-01T03:23:17;99908.34;;;3.83;74.88
76728;BME280;65652;53.132;18.026;2023-02-01T03:25:47;99904.33;;;3.85;74.92
76728;BME280;65652;53.132;18.026;2023-02-01T03:28:17;99908.66;;;3.86;74.89
76728;BME280;65652;53.132;18.026;2023-02-01T03:30:47;99903.03;;;3.87;75.30
76728;BME280;65652;53.132;18.026;2023-02-01T03:33:20;99904.55;;;3.87;75.26
76728;BME280;65652;53.132;18.026;2023-02-01T03:36:05;99898.52;;;3.87;74.96
76728;BME280;65652;53.132;18.026;2023-02-01T03:38:50;99904.39;;;3.87;74.64
76728;BME280;65652;53.132;18.026;2023-02-01T03:43:55;99896.52;;;3.87;74.44
76728;BME280;65652;53.132;18.026;2023-02-01T03:46:37;99897.20;;;3.87;74.49
76728;BME280;65652;53.132;18.026;2023-02-01T03:49:08;99898.23;;;3.88;74.64
76728;BME280;65652;53.132;18.026;2023-02-01T03:51:38;99901.14;;;3.89;74.57
76728;BME280;65652;53.132;18.026;2023-02-01T03:54:09;99908.67;;;3.88;75.03
76728;BME280;65652;53.132;18.026;2023-02-01T03:56:41;99899.31;;;3.87;74.62
76728;BME280;65652;53.132;18.026;2023-02-01T03:59:11;99897.35;;;3.87;74.32
76728;BME280;65652;53.132;18.026;2023-02-01T04:01:38;99887.05;;;3.88;74.69
76728;BME280;65652;53.132;18.026;2023-02-01T04:04:04;99880.91;;;3.88;74.24
76728;BME280;65652;53.132;18.026;2023-02-01T04:06:31;99886.04;;;3.87;74.29
76728;BME280;65652;53.132;18.026;2023-02-01T04:09:00;99879.34;;;3.86;74.65
76728;BME280;65652;53.132;18.026;2023-02-01T04:11:27;99889.85;;;3.85;74.55
76728;BME280;65652;53.132;18.026;2023-02-01T04:13:54;99894.23;;;3.85;74.63
76728;BME280;65652;53.132;18.026;2023-02-01T04:16:21;99895.98;;;3.85;74.68
76728;BME280;65652;53.132;18.026;2023-02-01T04:18:47;99889.63;;;3.86;74.85
76728;BME280;65652;53.132;18.026;2023-02-01T04:21:13;99876.66;;;3.86;74.73
76728;BME280;65652;53.132;18.026;2023-02-01T04:23:39;99880.46;;;3.85;74.67
76728;BME280;65652;53.132;18.026;2023-02-01T04:26:05;99876.86;;;3.84;74.95
76728;BME280;65652;53.132;18.026;2023-02-01T04:28:31;99874.38;;;3.82;75.29
76728;BME280;65652;53.132;18.026;2023-02-01T04:30:58;99876.35;;;3.81;75.44
76728;BME280;65652;53.132;18.026;2023-02-01T04:33:24;99886.42;;;3.82;75.51
76728;BME280;65652;53.132;18.026;2023-02-01T04:35:50;99886.03;;;3.82;75.55
76728;BME280;65652;53.132;18.026;2023-02-01T04:38:17;99883.34;;;3.84;75.74
76728;BME280;65652;53.132;18.026;2023-02-01T04:40:46;99883.56;;;3.83;76.28
76728;BME280;65652;53.132;18.026;2023-02-01T04:43:13;99886.23;;;3.80;76.28
76728;BME280;65652;53.132;18.026;2023-02-01T04:45:39;99887.95;;;3.78;76.74
76728;BME280;65652;53.132;18.026;2023-02-01T04:48:05;99884.08;;;3.76;76.79
76728;BME280;65652;53.132;18.026;2023-02-01T04:50:31;99884.00;;;3.74;76.77
76728;BME280;65652;53.132;18.026;2023-02-01T04:52:58;99880.08;;;3.73;76.94
76728;BME280;65652;53.132;18.026;2023-02-01T04:55:24;99876.29;;;3.72;76.89
76728;BME280;65652;53.132;18.026;2023-02-01T04:57:50;99879.96;;;3.73;76.49
76728;BME280;65652;53.132;18.026;2023-02-01T05:00:17;99878.38;;;3.75;76.53
76728;BME280;65652;53.132;18.026;2023-02-01T05:02:43;99880.27;;;3.78;76.45
76728;BME280;65652;53.132;18.026;2023-02-01T05:05:09;99879.24;;;3.80;76.08
76728;BME280;65652;53.132;18.026;2023-02-01T05:07:35;99868.40;;;3.82;76.16
76728;BME280;65652;53.132;18.026;2023-02-01T05:10:01;99875.63;;;3.84;75.97
76728;BME280;65652;53.132;18.026;2023-02-01T05:12:28;99872.34;;;3.86;75.71
76728;BME280;65652;53.132;18.026;2023-02-01T05:15:12;99875.93;;;3.87;75.78
76728;BME280;65652;53.132;18.026;2023-02-01T05:17:38;99881.18;;;3.89;75.51
76728;BME280;65652;53.132;18.026;2023-02-01T05:20:07;99866.38;;;3.91;75.50
76728;BME280;65652;53.132;18.026;2023-02-01T05:22:33;99855.09;;;3.92;75.28
76728;BME280;65652;53.132;18.026;2023-02-01T05:25:00;99860.59;;;3.94;75.11
76728;BME280;65652;53.132;18.026;2023-02-01T05:27:29;99857.81;;;3.93;74.90
76728;BME280;65652;53.132;18.026;2023-02-01T05:29:55;99852.19;;;3.94;74.74
76728;BME280;65652;53.132;18.026;2023-02-01T05:32:21;99858.95;;;3.95;74.75
76728;BME280;65652;53.132;18.026;2023-02-01T05:34:48;99862.07;;;3.95;74.86
76728;BME280;65652;53.132;18.026;2023-02-01T05:37:14;99862.98;;;3.94;74.82
76728;BME280;65652;53.132;18.026;2023-02-01T05:39:40;99854.98;;;3.94;75.30
76728;BME280;65652;53.132;18.026;2023-02-01T05:42:06;99859.95;;;3.91;75.07
76728;BME280;65652;53.132;18.026;2023-02-01T05:44:33;99857.13;;;3.89;75.48
76728;BME280;65652;53.132;18.026;2023-02-01T05:46:59;99861.17;;;3.85;75.77
76728;BME280;65652;53.132;18.026;2023-02-01T05:49:25;99864.52;;;3.83;76.04
76728;BME280;65652;53.132;18.026;2023-02-01T05:51:51;99862.02;;;3.79;75.87
76728;BME280;65652;53.132;18.026;2023-02-01T05:54:17;99865.04;;;3.76;76.42
76728;BME280;65652;53.132;18.026;2023-02-01T05:56:43;99869.56;;;3.74;76.50
76728;BME280;65652;53.132;18.026;2023-02-01T05:59:10;99888.52;;;3.73;76.64
76728;BME280;65652;53.132;18.026;2023-02-01T06:01:36;99892.52;;;3.72;76.70
76728;BME280;65652;53.132;18.026;2023-02-01T06:04:02;99886.26;;;3.73;76.82
76728;BME280;65652;53.132;18.026;2023-02-01T06:06:29;99887.44;;;3.73;76.58
76728;BME280;65652;53.132;18.026;2023-02-01T06:08:55;99886.44;;;3.74;76.65
76728;BME280;65652;53.132;18.026;2023-02-01T06:11:21;99889.85;;;3.76;77.03
76728;BME280;65652;53.132;18.026;2023-02-01T06:13:47;99889.14;;;3.76;76.89
76728;BME280;65652;53.132;18.026;2023-02-01T06:16:13;99889.96;;;3.76;76.64
76728;BME280;65652;53.132;18.026;2023-02-01T06:18:41;99893.59;;;3.77;76.72
76728;BME280;65652;53.132;18.026;2023-02-01T06:21:08;99897.13;;;3.76;76.46
76728;BME280;65652;53.132;18.026;2023-02-01T06:23:34;99893.63;;;3.76;76.54
76728;BME280;65652;53.132;18.026;2023-02-01T06:26:03;99901.48;;;3.84;77.46
76728;BME280;65652;53.132;18.026;2023-02-01T06:28:31;99889.56;;;3.87;76.19
76728;BME280;65652;53.132;18.026;2023-02-01T06:30:58;99891.68;;;3.84;76.11
76728;BME280;65652;53.132;18.026;2023-02-01T06:33:28;99898.29;;;3.82;76.16
76728;BME280;65652;53.132;18.026;2023-02-01T06:35:58;99889.41;;;3.79;76.14
76728;BME280;65652;53.132;18.026;2023-02-01T06:38:25;99898.38;;;3.78;75.94
76728;BME280;65652;53.132;18.026;2023-02-01T06:40:56;99893.69;;;3.78;76.05
76728;BME280;65652;53.132;18.026;2023-02-01T06:43:24;99891.13;;;3.77;76.25
76728;BME280;65652;53.132;18.026;2023-02-01T06:45:51;99890.20;;;3.78;76.12
76728;BME280;65652;53.132;18.026;2023-02-01T06:48:18;99889.23;;;3.79;76.00
76728;BME280;65652;53.132;18.026;2023-02-01T06:50:45;99892.30;;;3.81;75.69
76728;BME280;65652;53.132;18.026;2023-02-01T06:53:11;99889.27;;;3.81;75.68
76728;BME280;65652;53.132;18.026;2023-02-01T06:55:37;99897.06;;;3.82;75.48
76728;BME280;65652;53.132;18.026;2023-02-01T06:58:03;99890.41;;;3.82;75.53
76728;BME280;65652;53.132;18.026;2023-02-01T07:00:29;99897.60;;;3.84;75.39
76728;BME280;65652;53.132;18.026;2023-02-01T07:02:57;99892.23;;;3.84;75.68
76728;BME280;65652;53.132;18.026;2023-02-01T07:05:24;99894.60;;;3.85;75.19
76728;BME280;65652;53.132;18.026;2023-02-01T07:07:50;99893.37;;;3.85;74.83
76728;BME280;65652;53.132;18.026;2023-02-01T07:10:17;99896.79;;;3.86;75.14
76728;BME280;65652;53.132;18.026;2023-02-01T07:12:43;99898.33;;;3.86;74.85
76728;BME280;65652;53.132;18.026;2023-02-01T07:15:09;99891.79;;;3.87;74.80
76728;BME280;65652;53.132;18.026;2023-02-01T07:17:36;99893.02;;;3.87;74.70
76728;BME280;65652;53.132;18.026;2023-02-01T07:20:02;99882.72;;;3.87;74.22
76728;BME280;65652;53.132;18.026;2023-02-01T07:22:29;99891.05;;;3.88;74.12
76728;BME280;65652;53.132;18.026;2023-02-01T07:24:55;99883.04;;;3.90;73.91
76728;BME280;65652;53.132;18.026;2023-02-01T07:27:21;99881.36;;;3.91;73.84
76728;BME280;65652;53.132;18.026;2023-02-01T07:29:50;99886.54;;;3.94;73.94
76728;BME280;65652;53.132;18.026;2023-02-01T07:32:17;99887.77;;;3.97;73.98
76728;BME280;65652;53.132;18.026;2023-02-01T07:34:44;99900.05;;;3.99;73.86
76728;BME280;65652;53.132;18.026;2023-02-01T07:37:10;99891.91;;;4.00;73.72
76728;BME280;65652;53.132;18.026;2023-02-01T07:39:37;99894.68;;;4.00;73.82
76728;BME280;65652;53.132;18.026;2023-02-01T07:42:03;99892.48;;;4.02;73.61
76728;BME280;65652;53.132;18.026;2023-02-01T07:44:29;99892.98;;;4.04;73.45
76728;BME280;65652;53.132;18.026;2023-02-01T07:46:55;99894.69;;;4.07;73.45
76728;BME280;65652;53.132;18.026;2023-02-01T07:49:21;99897.09;;;4.10;73.40
76728;BME280;65652;53.132;18.026;2023-02-01T07:51:47;99889.79;;;4.14;73.44
76728;BME280;65652;53.132;18.026;2023-02-01T07:54:13;99899.23;;;4.19;73.15
76728;BME280;65652;53.132;18.026;2023-02-01T07:56:40;99883.65;;;4.24;73.58
76728;BME280;65652;53.132;18.026;2023-02-01T07:59:06;99895.96;;;4.30;73.28
76728;BME280;65652;53.132;18.026;2023-02-01T08:01:33;99893.27;;;4.38;73.14
76728;BME280;65652;53.132;18.026;2023-02-01T08:04:01;99887.36;;;4.44;72.85
76728;BME280;65652;53.132;18.026;2023-02-01T08:06:31;99899.48;;;4.48;72.90
76728;BME280;65652;53.132;18.026;2023-02-01T08:08:57;99899.45;;;4.51;72.52
76728;BME280;65652;53.132;18.026;2023-02-01T08:11:24;99894.95;;;4.53;72.96
76728;BME280;65652;53.132;18.026;2023-02-01T08:13:51;99900.38;;;4.55;72.94
76728;BME280;65652;53.132;18.026;2023-02-01T08:16:19;99899.91;;;4.56;72.62
76728;BME280;65652;53.132;18.026;2023-02-01T08:18:46;99914.45;;;4.56;72.72
76728;BME280;65652;53.132;18.026;2023-02-01T08:21:15;99915.48;;;4.56;72.37
76728;BME280;65652;53.132;18.026;2023-02-01T08:23:42;99914.39;;;4.59;72.69
76728;BME280;65652;53.132;18.026;2023-02-01T08:26:14;99925.25;;;4.59;72.85
76728;BME280;65652;53.132;18.026;2023-02-01T08:28:43;99919.29;;;4.59;72.69
76728;BME280;65652;53.132;18.026;2023-02-01T08:31:12;99925.37;;;4.59;72.99
76728;BME280;65652;53.132;18.026;2023-02-01T08:33:41;99928.39;;;4.61;73.20
76728;BME280;65652;53.132;18.026;2023-02-01T08:36:09;99939.09;;;4.63;73.01
76728;BME280;65652;53.132;18.026;2023-02-01T08:38:37;99938.13;;;4.67;73.43
76728;BME280;65652;53.132;18.026;2023-02-01T08:41:10;99929.74;;;4.71;73.42
76728;BME280;65652;53.132;18.026;2023-02-01T08:43:36;99930.38;;;4.74;73.69
76728;BME280;65652;53.132;18.026;2023-02-01T08:46:03;99930.31;;;4.75;73.27
76728;BME280;65652;53.132;18.026;2023-02-01T08:48:30;99945.54;;;4.73;73.08
76728;BME280;65652;53.132;18.026;2023-02-01T08:50:57;99931.43;;;4.67;73.13
76728;BME280;65652;53.132;18.026;2023-02-01T08:53:23;99939.15;;;4.62;73.34
76728;BME280;65652;53.132;18.026;2023-02-01T08:55:49;99933.50;;;4.58;73.73
76728;BME280;65652;53.132;18.026;2023-02-01T08:58:15;99935.80;;;4.56;74.20
76728;BME280;65652;53.132;18.026;2023-02-01T09:00:43;99924.55;;;4.56;74.58
76728;BME280;65652;53.132;18.026;2023-02-01T09:03:14;99932.40;;;4.64;74.85
76728;BME280;65652;53.132;18.026;2023-02-01T09:05:41;99929.37;;;4.74;74.47
76728;BME280;65652;53.132;18.026;2023-02-01T09:08:07;99924.14;;;4.69;74.39
76728;BME280;65652;53.132;18.026;2023-02-01T09:10:34;99934.46;;;4.64;74.51
76728;BME280;65652;53.132;18.026;2023-02-01T09:13:01;99925.06;;;4.59;74.83
76728;BME280;65652;53.132;18.026;2023-02-01T09:15:27;99933.50;;;4.54;75.32
76728;BME280;65652;53.132;18.026;2023-02-01T09:17:53;99926.98;;;4.50;75.73
76728;BME280;65652;53.132;18.026;2023-02-01T09:20:20;99935.34;;;4.43;75.95
76728;BME280;65652;53.132;18.026;2023-02-01T09:22:51;99937.58;;;4.37;76.62
76728;BME280;65652;53.132;18.026;2023-02-01T09:25:17;99935.61;;;4.35;77.15
76728;BME280;65652;53.132;18.026;2023-02-01T09:27:44;99926.23;;;4.34;77.16
76728;BME280;65652;53.132;18.026;2023-02-01T09:30:10;99924.30;;;4.32;77.22
76728;BME280;65652;53.132;18.026;2023-02-01T09:32:37;99924.50;;;4.27;77.64
76728;BME280;65652;53.132;18.026;2023-02-01T09:35:03;99915.23;;;4.27;77.76
76728;BME280;65652;53.132;18.026;2023-02-01T09:37:29;99911.73;;;4.32;77.56
76728;BME280;65652;53.132;18.026;2023-02-01T09:39:55;99909.59;;;4.37;77.76
76728;BME280;65652;53.132;18.026;2023-02-01T09:42:30;99913.91;;;4.42;77.22
76728;BME280;65652;53.132;18.026;2023-02-01T09:45:24;99906.55;;;4.47;77.19
76728;BME280;65652;53.132;18.026;2023-02-01T09:48:02;99909.01;;;4.51;76.77
76728;BME280;65652;53.132;18.026;2023-02-01T09:50:39;99892.86;;;4.55;76.76
76728;BME280;65652;53.132;18.026;2023-02-01T09:53:40;99898.87;;;4.58;76.67
76728;BME280;65652;53.132;18.026;2023-02-01T09:56:18;99898.40;;;4.60;76.73
76728;BME280;65652;53.132;18.026;2023-02-01T09:58:55;99898.23;;;4.58;76.69
76728;BME280;65652;53.132;18.026;2023-02-01T10:01:26;99899.27;;;4.55;76.45
76728;BME280;65652;53.132;18.026;2023-02-01T10:04:00;99896.73;;;4.56;76.58
76728;BME280;65652;53.132;18.026;2023-02-01T10:06:48;99890.33;;;4.60;76.50
76728;BME280;65652;53.132;18.026;2023-02-01T10:26:59;99886.30;;;5.21;74.12
76728;BME280;65652;53.132;18.026;2023-02-01T10:29:35;99883.89;;;5.27;73.55
76728;BME280;65652;53.132;18.026;2023-02-01T10:32:10;99875.82;;;5.34;74.01
76728;BME280;65652;53.132;18.026;2023-02-01T10:34:38;99882.52;;;5.36;73.49
76728;BME280;65652;53.132;18.026;2023-02-01T10:37:24;99875.79;;;5.34;73.05
76728;BME280;65652;53.132;18.026;2023-02-01T10:39:54;99874.73;;;5.41;73.15
76728;BME280;65652;53.132;18.026;2023-02-01T10:42:25;99881.04;;;5.45;73.01
76728;BME280;65652;53.132;18.026;2023-02-01T10:44:52;99884.01;;;5.43;73.15
76728;BME280;65652;53.132;18.026;2023-02-01T10:47:19;99881.72;;;5.37;73.21
76728;BME280;65652;53.132;18.026;2023-02-01T10:50:03;99882.15;;;5.31;73.36
76728;BME280;65652;53.132;18.026;2023-02-01T10:52:48;99875.34;;;5.27;73.50
76728;BME280;65652;53.132;18.026;2023-02-01T10:58:01;99879.06;;;5.17;73.52
76728;BME280;65652;53.132;18.026;2023-02-01T11:00:33;99872.83;;;5.17;73.85
76728;BME280;65652;53.132;18.026;2023-02-01T11:03:19;99870.50;;;5.17;73.94
76728;BME280;65652;53.132;18.026;2023-02-01T11:05:46;99867.45;;;5.21;74.07
76728;BME280;65652;53.132;18.026;2023-02-01T11:08:16;99866.45;;;5.22;73.93
76728;BME280;65652;53.132;18.026;2023-02-01T11:10:44;99870.92;;;5.21;73.73
76728;BME280;65652;53.132;18.026;2023-02-01T11:13:16;99865.43;;;5.22;73.90
76728;BME280;65652;53.132;18.026;2023-02-01T11:15:47;99868.35;;;5.22;74.16
76728;BME280;65652;53.132;18.026;2023-02-01T11:18:26;99868.13;;;5.23;74.12
76728;BME280;65652;53.132;18.026;2023-02-01T11:20:54;99865.71;;;5.22;74.01
76728;BME280;65652;53.132;18.026;2023-02-01T11:23:24;99860.88;;;5.22;73.92
76728;BME280;65652;53.132;18.026;2023-02-01T11:25:56;99855.23;;;5.22;73.93
76728;BME280;65652;53.132;18.026;2023-02-01T11:28:29;99855.89;;;5.23;74.06
76728;BME280;65652;53.132;18.026;2023-02-01T11:31:01;99854.48;;;5.27;74.39
76728;BME280;65652;53.132;18.026;2023-02-01T11:33:33;99849.06;;;5.36;74.20
76728;BME280;65652;53.132;18.026;2023-02-01T11:36:07;99853.56;;;5.43;73.41
76728;BME280;65652;53.132;18.026;2023-02-01T11:38:34;99849.27;;;5.46;73.56
76728;BME280;65652;53.132;18.026;2023-02-01T11:41:23;99850.33;;;5.48;73.43
76728;BME280;65652;53.132;18.026;2023-02-01T11:44:00;99855.02;;;5.51;73.44
76728;BME280;65652;53.132;18.026;2023-02-01T11:46:34;99855.77;;;5.53;73.41
76728;BME280;65652;53.132;18.026;2023-02-01T11:49:20;99854.33;;;5.53;73.43
76728;BME280;65652;53.132;18.026;2023-02-01T11:52:18;99850.55;;;5.67;73.49
76728;BME280;65652;53.132;18.026;2023-02-01T11:55:07;99840.52;;;5.94;72.42
76728;BME280;65652;53.132;18.026;2023-02-01T11:57:59;99842.10;;;6.09;72.17
76728;BME280;65652;53.132;18.026;2023-02-01T12:00:54;99843.55;;;6.10;71.32
76728;BME280;65652;53.132;18.026;2023-02-01T12:19:27;99835.31;;;6.06;70.89
76728;BME280;65652;53.132;18.026;2023-02-01T12:22:08;99830.84;;;6.00;70.85
76728;BME280;65652;53.132;18.026;2023-02-01T12:30:23;99831.81;;;5.74;71.19
76728;BME280;65652;53.132;18.026;2023-02-01T12:32:56;99825.25;;;5.66;70.92
76728;BME280;65652;53.132;18.026;2023-02-01T12:38:34;99826.25;;;5.62;71.32
76728;BME280;65652;53.132;18.026;2023-02-01T12:41:33;99826.86;;;5.66;71.69
76728;BME280;65652;53.132;18.026;2023-02-01T12:46:30;99823.86;;;5.64;71.82
76728;BME280;65652;53.132;18.026;2023-02-01T12:49:18;99823.83;;;5.62;71.75
76728;BME280;65652;53.132;18.026;2023-02-01T12:51:49;99824.96;;;5.57;71.71
76728;BME280;65652;53.132;18.026;2023-02-01T12:54:41;99816.39;;;5.50;71.68
76728;BME280;65652;53.132;18.026;2023-02-01T12:57:17;99830.34;;;5.44;72.01
76728;BME280;65652;53.132;18.026;2023-02-01T13:00:00;99829.65;;;5.42;72.15
76728;BME280;65652;53.132;18.026;2023-02-01T13:02:36;99836.83;;;5.40;72.22
76728;BME280;65652;53.132;18.026;2023-02-01T13:05:18;99836.67;;;5.38;72.39
76728;BME280;65652;53.132;18.026;2023-02-01T13:07:50;99841.33;;;5.36;72.40
76728;BME280;65652;53.132;18.026;2023-02-01T13:10:33;99846.77;;;5.34;72.60
76728;BME280;65652;53.132;18.026;2023-02-01T13:15:41;99839.73;;;5.28;72.52
76728;BME280;65652;53.132;18.026;2023-02-01T13:18:13;99839.06;;;5.25;72.54
76728;BME280;65652;53.132;18.026;2023-02-01T13:20:55;99842.71;;;5.24;72.55
76728;BME280;65652;53.132;18.026;2023-02-01T13:23:33;99843.96;;;5.21;72.57
76728;BME280;65652;53.132;18.026;2023-02-01T13:26:01;99844.78;;;5.19;72.75
76728;BME280;65652;53.132;18.026;2023-02-01T13:28:32;99841.09;;;5.17;72.97
76728;BME280;65652;53.132;18.026;2023-02-01T13:42:15;99851.63;;;5.15;73.34
76728;BME280;65652;53.132;18.026;2023-02-01T13:44:46;99854.34;;;5.14;73.39
76728;BME280;65652;53.132;18.026;2023-02-01T13:47:30;99849.95;;;5.09;73.54
76728;BME280;65652;53.132;18.026;2023-02-01T13:50:11;99841.87;;;5.08;73.63
76728;BME280;65652;53.132;18.026;2023-02-01T13:52:41;99847.89;;;5.07;73.80
76728;BME280;65652;53.132;18.026;2023-02-01T13:57:48;99851.09;;;5.08;73.99
76728;BME280;65652;53.132;18.026;2023-02-01T14:00:34;99852.86;;;5.10;74.10
76728;BME280;65652;53.132;18.026;2023-02-01T14:13:30;99862.01;;;5.03;73.68
76728;BME280;65652;53.132;18.026;2023-02-01T14:23:46;99847.04;;;5.00;73.74
76728;BME280;65652;53.132;18.026;2023-02-01T14:27:18;99861.83;;;5.01;73.67
76728;BME280;65652;53.132;18.026;2023-02-01T14:34:25;99861.93;;;5.02;73.18
76728;BME280;65652;53.132;18.026;2023-02-01T14:36:59;99861.24;;;5.02;73.41
76728;BME280;65652;53.132;18.026;2023-02-01T14:39:34;99865.52;;;5.03;73.40
76728;BME280;65652;53.132;18.026;2023-02-01T14:42:05;99865.86;;;5.03;73.27
76728;BME280;65652;53.132;18.026;2023-02-01T14:44:40;99866.46;;;5.02;73.27
76728;BME280;65652;53.132;18.026;2023-02-01T14:47:30;99862.16;;;5.01;73.08
76728;BME280;65652;53.132;18.026;2023-02-01T14:52:38;99861.19;;;5.00;73.21
76728;BME280;65652;53.132;18.026;2023-02-01T14:55:14;99864.41;;;4.99;73.02
76728;BME280;65652;53.132;18.026;2023-02-01T14:57:43;99865.88;;;4.98;72.92
76728;BME280;65652;53.132;18.026;2023-02-01T15:00:19;99858.77;;;4.98;72.93
76728;BME280;65652;53.132;18.026;2023-02-01T15:02:47;99862.33;;;4.97;72.98
76728;BME280;65652;53.132;18.026;2023-02-01T15:05:23;99860.95;;;4.97;72.60
76728;BME280;65652;53.132;18.026;2023-02-01T15:07:51;99857.45;;;4.96;72.62
76728;BME280;65652;53.132;18.026;2023-02-01T15:10:18;99860.90;;;4.97;72.64
76728;BME280;65652;53.132;18.026;2023-02-01T15:12:47;99865.06;;;4.95;72.52
76728;BME280;65652;53.132;18.026;2023-02-01T15:15:21;99861.61;;;4.95;72.76